createdAt,value
2023-11-03T00:00:43.400Z,96283.28
2023-11-03T00:04:09.877Z,96291.50
2023-11-03T00:07:14.668Z,96278.94
2023-11-03T00:10:19.003Z,96285.03
2023-11-03T00:13:23.702Z,96281.44
2023-11-03T00:16:29.029Z,96275.97
2023-11-03T00:19:33.374Z,96284.53
2023-11-03T00:22:36.704Z,96272.16
2023-11-03T00:25:40.708Z,96279.75
2023-11-03T00:28:43.960Z,96270.38
2023-11-03T00:31:49.379Z,96256.34
2023-11-03T00:34:52.635Z,96252.91
2023-11-03T00:37:58.151Z,96248.69
2023-11-03T00:41:01.468Z,96254.13
2023-11-03T00:44:05.450Z,96249.03
2023-11-03T00:47:11.960Z,96246.91
2023-11-03T00:50:16.099Z,96262.91
2023-11-03T00:53:20.140Z,96258.94
2023-11-03T00:56:24.461Z,96247.88
2023-11-03T00:59:27.754Z,96250.06
2023-11-03T01:02:33.282Z,96252.59
2023-11-03T01:05:36.568Z,96244.28
2023-11-03T01:08:40.724Z,96235.69
2023-11-03T01:11:44.097Z,96232.50
2023-11-03T01:14:48.241Z,96226.91
2023-11-03T01:17:53.060Z,96219.38
2023-11-03T01:20:58.999Z,96208.34
2023-11-03T01:24:02.792Z,96194.34
2023-11-03T01:27:08.976Z,96195.50
2023-11-03T01:30:13.549Z,96188.56
2023-11-03T01:33:19.104Z,96176.22
2023-11-03T01:36:22.469Z,96176.22
2023-11-03T01:39:26.664Z,96161.19
2023-11-03T01:42:30.132Z,96159.56
2023-11-03T01:45:34.404Z,96171.44
2023-11-03T01:48:39.234Z,96159.63
2023-11-03T01:51:44.034Z,96155.91
2023-11-03T01:54:47.781Z,96159.19
2023-11-03T01:57:51.946Z,96159.75
2023-11-03T02:00:55.605Z,96159.75
2023-11-03T02:04:01.778Z,96145.97
2023-11-03T02:07:05.350Z,96158.63
2023-11-03T02:10:10.115Z,96140.59
2023-11-03T02:13:13.523Z,96136.28
2023-11-03T02:16:17.811Z,96140.31
2023-11-03T02:19:23.645Z,96142.44
2023-11-03T02:22:27.796Z,96127.84
2023-11-03T02:25:32.622Z,96115.47
2023-11-03T02:28:36.774Z,96112.47
2023-11-03T02:31:40.808Z,96111.06
2023-11-03T02:34:44.882Z,96111.06
2023-11-03T02:37:48.148Z,96107.56
2023-11-03T02:40:56.202Z,96113.28
2023-11-03T02:44:00.071Z,96110.88
2023-11-03T02:47:03.972Z,96115.66
2023-11-03T02:50:08.442Z,96101.88
2023-11-03T02:53:13.047Z,96105.91
2023-11-03T02:56:25.230Z,96111.31
2023-11-03T02:59:29.231Z,96115.31
2023-11-03T03:02:33.233Z,96107.16
2023-11-03T03:05:38.535Z,96102.22
2023-11-03T03:08:41.900Z,96095.66
2023-11-03T03:11:47.397Z,96100.97
2023-11-03T03:14:50.748Z,96090.13
2023-11-03T03:17:54.640Z,96080.03
2023-11-03T03:20:57.971Z,96081.88
2023-11-03T03:24:01.879Z,96074.00
2023-11-03T03:27:06.998Z,96053.72
2023-11-03T03:30:11.474Z,96067.50
2023-11-03T03:33:15.041Z,96058.59
2023-11-03T03:36:19.453Z,96048.59
2023-11-03T03:39:23.023Z,96055.59
2023-11-03T03:42:28.102Z,96041.81
2023-11-03T03:45:31.351Z,96034.72
2023-11-03T03:48:35.825Z,96033.63
2023-11-03T03:51:39.424Z,96027.72
2023-11-03T03:54:43.403Z,96008.00
2023-11-03T03:57:50.103Z,96001.53
2023-11-03T04:00:54.156Z,96001.22
2023-11-03T04:03:57.723Z,95998.81
2023-11-03T04:07:01.760Z,95981.53
2023-11-03T04:10:06.701Z,95981.31
2023-11-03T04:13:12.555Z,95976.81
2023-11-03T04:16:15.976Z,95985.78
2023-11-03T04:19:20.251Z,95969.69
2023-11-03T04:22:23.676Z,95968.38
2023-11-03T04:25:27.757Z,95967.06
2023-11-03T04:28:34.536Z,95966.56
2023-11-03T04:31:38.519Z,95973.34
2023-11-03T04:34:41.968Z,95960.94
2023-11-03T04:37:46.500Z,95973.34
2023-11-03T04:40:49.695Z,95961.16
2023-11-03T04:43:55.100Z,95960.56
2023-11-03T04:46:58.528Z,95949.50
2023-11-03T04:50:02.667Z,95950.47
2023-11-03T04:53:05.978Z,95957.78
2023-11-03T04:56:10.060Z,95958.00
2023-11-03T04:59:14.697Z,95944.72
2023-11-03T05:02:18.981Z,95949.22
2023-11-03T05:05:22.888Z,95936.22
2023-11-03T05:08:26.954Z,95935.34
2023-11-03T05:11:30.437Z,95923.94
2023-11-03T05:14:35.873Z,95919.84
2023-11-03T05:17:39.632Z,95929.25
2023-11-03T05:20:43.487Z,95925.44
2023-11-03T05:23:46.987Z,95910.03
2023-11-03T05:26:50.804Z,95916.88
2023-11-03T05:29:55.507Z,95906.72
2023-11-03T05:33:00.627Z,95903.81
2023-11-03T05:36:04.125Z,95892.03
2023-11-03T05:39:09.491Z,95892.41
2023-11-03T05:42:12.730Z,95887.59
2023-11-03T05:45:18.502Z,95900.41
2023-11-03T05:48:21.793Z,95904.28
2023-11-03T05:51:26.245Z,95891.06
2023-11-03T05:54:29.779Z,95882.00
2023-11-03T05:57:34.177Z,95896.88
2023-11-03T06:00:39.176Z,95889.06
2023-11-03T06:03:43.230Z,95888.56
2023-11-03T06:06:46.840Z,95898.75
2023-11-03T06:09:51.035Z,95908.97
2023-11-03T06:12:54.355Z,95913.16
2023-11-03T06:16:00.214Z,95906.59
2023-11-03T06:19:05.185Z,95909.19
2023-11-03T06:22:09.610Z,95898.31
2023-11-03T06:25:12.971Z,95899.03
2023-11-03T06:28:17.314Z,95902.44
2023-11-03T06:31:22.100Z,95902.66
2023-11-03T06:34:26.276Z,95903.97
2023-11-03T06:37:29.633Z,95904.66
2023-11-03T06:40:35.011Z,95908.91
2023-11-03T06:43:40.881Z,95908.00
2023-11-03T06:46:46.655Z,95906.28
2023-11-03T06:49:49.916Z,95896.50
2023-11-03T06:52:53.813Z,95891.00
2023-11-03T06:55:57.050Z,95877.97
2023-11-03T06:59:01.342Z,95882.78
2023-11-03T07:02:06.456Z,95888.09
2023-11-03T07:05:11.152Z,95895.28
2023-11-03T07:08:14.666Z,95895.47
2023-11-03T07:11:20.625Z,95910.00
2023-11-03T07:14:25.161Z,95900.69
2023-11-03T07:17:30.337Z,95907.09
2023-11-03T07:20:33.705Z,95904.88
2023-11-03T07:23:37.852Z,95904.28
2023-11-03T07:26:43.367Z,95897.47
2023-11-03T07:29:47.196Z,95900.38
2023-11-03T07:32:51.890Z,95917.59
2023-11-03T07:35:56.131Z,95910.97
2023-11-03T07:38:59.693Z,95904.84
2023-11-03T07:42:04.124Z,95912.22
2023-11-03T07:45:08.513Z,95902.41
2023-11-03T07:48:14.272Z,95898.16
2023-11-03T07:51:17.548Z,95902.56
2023-11-03T07:54:21.901Z,95906.13
2023-11-03T07:57:25.911Z,95915.09
2023-11-03T08:00:30.459Z,95914.50
2023-11-03T08:03:36.905Z,95910.91
2023-11-03T08:06:42.558Z,95893.28
2023-11-03T08:09:45.958Z,95891.41
2023-11-03T08:12:49.836Z,95888.25
2023-11-03T08:15:53.197Z,95873.81
2023-11-03T08:18:59.896Z,95877.00
2023-11-03T08:22:03.967Z,95867.28
2023-11-03T08:25:08.796Z,95881.31
2023-11-03T08:28:12.426Z,95876.69
2023-11-03T08:31:16.741Z,95875.91
2023-11-03T08:34:22.242Z,95873.03
2023-11-03T08:37:27.056Z,95867.63
2023-11-03T08:40:30.997Z,95867.63
2023-11-03T08:43:35.062Z,95866.06
2023-11-03T08:46:38.985Z,95883.41
2023-11-03T08:49:44.596Z,95876.69
2023-11-03T08:52:48.832Z,95889.44
2023-11-03T08:55:53.484Z,95882.91
2023-11-03T08:58:58.334Z,95885.63
2023-11-03T09:02:02.403Z,95878.28
2023-11-03T09:05:10.662Z,95872.09
2023-11-03T09:08:14.705Z,95863.16
2023-11-03T09:11:18.475Z,95871.78
2023-11-03T09:14:22.664Z,95860.63
2023-11-03T09:17:26.167Z,95857.94
2023-11-03T09:20:31.592Z,95851.38
2023-11-03T09:23:35.192Z,95861.91
2023-11-03T09:26:39.987Z,95869.22
2023-11-03T09:29:43.668Z,95853.47
2023-11-03T09:32:49.407Z,95853.34
2023-11-03T09:35:54.250Z,95847.00
2023-11-03T09:38:58.389Z,95835.22
2023-11-03T09:42:05.151Z,95846.53
2023-11-03T09:45:16.842Z,95843.84
2023-11-03T09:48:21.347Z,95845.44
2023-11-03T09:51:28.048Z,95836.34
2023-11-03T09:54:32.707Z,95836.94
2023-11-03T09:57:36.974Z,95834.88
2023-11-03T10:00:41.365Z,95823.06
2023-11-03T10:03:46.079Z,95815.72
2023-11-03T10:06:51.710Z,95813.94
2023-11-03T10:09:56.424Z,95803.22
2023-11-03T10:13:00.028Z,95798.78
2023-11-03T10:16:04.418Z,95805.41
2023-11-03T10:19:07.842Z,95798.53
2023-11-03T10:22:13.359Z,95798.63
2023-11-03T10:25:16.732Z,95795.25
2023-11-03T10:28:21.865Z,95788.38
2023-11-03T10:31:27.820Z,95780.69
2023-11-03T10:34:32.611Z,95783.03
2023-11-03T10:37:37.637Z,95776.00
2023-11-03T10:40:43.576Z,95765.91
2023-11-03T10:43:54.635Z,95748.22
2023-11-03T10:47:01.142Z,95733.50
2023-11-03T10:50:07.862Z,95729.84
2023-11-03T10:53:21.734Z,95726.66
2023-11-03T10:56:38.682Z,95727.06
2023-11-03T11:00:11.945Z,95736.28
2023-11-03T11:03:22.382Z,95736.13
2023-11-03T11:06:32.157Z,95734.50
2023-11-03T11:09:43.909Z,95732.41
2023-11-03T11:12:48.740Z,95731.91
2023-11-03T11:16:05.946Z,95716.31
2023-11-03T11:19:15.595Z,95718.81
2023-11-03T11:22:22.829Z,95723.25
2023-11-03T11:25:35.011Z,95715.75
2023-11-03T11:28:40.304Z,95716.34
2023-11-03T11:31:47.057Z,95717.47
2023-11-03T11:34:50.346Z,95718.56
2023-11-03T11:37:54.341Z,95722.88
2023-11-03T11:40:59.405Z,95714.16
2023-11-03T11:44:06.522Z,95717.16
2023-11-03T11:47:10.881Z,95713.34
2023-11-03T11:50:17.812Z,95715.56
2023-11-03T11:53:21.115Z,95716.50
2023-11-03T11:56:26.511Z,95716.78
2023-11-03T11:59:29.994Z,95717.19
2023-11-03T12:02:34.454Z,95706.53
2023-11-03T12:05:39.783Z,95707.34
2023-11-03T12:08:44.343Z,95703.53
2023-11-03T12:11:48.943Z,95702.41
2023-11-03T12:14:53.249Z,95700.19
2023-11-03T12:17:56.926Z,95696.38
2023-11-03T12:21:04.503Z,95694.28
2023-11-03T12:24:08.918Z,95695.44
2023-11-03T12:27:15.179Z,95684.13
2023-11-03T12:30:18.552Z,95679.81
2023-11-03T12:33:22.706Z,95679.31
2023-11-03T12:36:28.405Z,95662.63
2023-11-03T12:39:32.398Z,95666.44
2023-11-03T12:42:44.449Z,95675.63
2023-11-03T12:46:05.543Z,95666.22
2023-11-03T12:49:09.312Z,95671.22
2023-11-03T12:52:18.235Z,95652.81
2023-11-03T12:55:27.456Z,95637.09
2023-11-03T12:58:37.941Z,95642.19
2023-11-03T13:01:41.356Z,95623.75
2023-11-03T13:04:45.521Z,95606.16
2023-11-03T13:07:52.018Z,95601.94
2023-11-03T13:10:56.608Z,95584.84
2023-11-03T13:14:01.284Z,95569.94
2023-11-03T13:17:05.877Z,95528.44
2023-11-03T13:20:16.310Z,95510.63
2023-11-03T13:23:20.295Z,95514.13
2023-11-03T13:26:23.702Z,95530.03
2023-11-03T13:29:29.485Z,95549.25
2023-11-03T13:32:32.844Z,95561.16
2023-11-03T13:35:40.893Z,95576.88
2023-11-03T13:38:44.858Z,95577.38
2023-11-03T13:41:49.844Z,95557.34
2023-11-03T13:44:54.440Z,95557.34
2023-11-03T13:47:58.384Z,95574.97
2023-11-03T13:51:01.737Z,95581.69
2023-11-03T13:54:06.269Z,95587.09
2023-11-03T13:57:09.482Z,95605.19
2023-11-03T14:00:16.210Z,95613.63
2023-11-03T14:03:19.774Z,95605.03
2023-11-03T14:06:25.412Z,95592.59
2023-11-03T14:09:28.810Z,95592.59
2023-11-03T14:12:32.654Z,95579.59
2023-11-03T14:15:37.712Z,95572.78
2023-11-03T14:18:43.099Z,95564.38
2023-11-03T14:21:50.782Z,95555.16
2023-11-03T14:24:54.840Z,95567.38
2023-11-03T14:27:58.507Z,95575.78
2023-11-03T14:31:04.584Z,95576.88
2023-11-03T14:34:08.948Z,95566.38
2023-11-03T14:37:13.417Z,95553.81
2023-11-03T14:40:18.460Z,95514.22
2023-11-03T14:43:22.380Z,95490.03
2023-11-03T14:46:27.780Z,95513.69
2023-11-03T14:49:31.735Z,95530.31
2023-11-03T14:52:35.035Z,95521.38
2023-11-03T14:55:39.348Z,95524.19
2023-11-03T14:58:43.889Z,95525.63
2023-11-03T15:01:51.007Z,95531.16
2023-11-03T15:04:55.357Z,95529.88
2023-11-03T15:07:59.641Z,95532.03
2023-11-03T15:11:04.308Z,95537.28
2023-11-03T15:14:08.040Z,95539.47
2023-11-03T15:17:12.703Z,95551.38
2023-11-03T15:20:18.513Z,95554.69
2023-11-03T15:23:22.596Z,95563.88
2023-11-03T15:26:26.669Z,95570.88
2023-11-03T15:29:30.791Z,95568.69
2023-11-03T15:32:36.058Z,95567.88
2023-11-03T15:35:39.312Z,95578.19
2023-11-03T15:38:43.147Z,95576.59
2023-11-03T15:41:48.358Z,95575.47
2023-11-03T15:44:51.933Z,95571.69
2023-11-03T15:47:56.553Z,95581.88
2023-11-03T15:51:00.135Z,95596.97
2023-11-03T15:54:04.590Z,95589.66
2023-11-03T15:57:08.921Z,95572.84
2023-11-03T16:00:15.021Z,95574.94
2023-11-03T16:03:20.676Z,95551.16
2023-11-03T16:06:24.017Z,95556.56
2023-11-03T16:09:29.279Z,95554.34
2023-11-03T16:12:32.452Z,95564.06
2023-11-03T16:15:36.489Z,95567.25
2023-11-03T16:18:41.068Z,95569.94
2023-11-03T16:21:44.932Z,95569.16
2023-11-03T16:24:48.168Z,95571.53
2023-11-03T16:27:52.557Z,95572.66
2023-11-03T16:30:55.963Z,95558.34
2023-11-03T16:34:01.472Z,95556.44
2023-11-03T16:37:05.858Z,95558.84
2023-11-03T16:40:12.487Z,95560.44
2023-11-03T16:43:16.192Z,95557.75
2023-11-03T16:46:20.247Z,95566.63
2023-11-03T16:49:27.114Z,95562.00
2023-11-03T16:52:36.082Z,95569.50
2023-11-03T16:55:40.649Z,95563.00
2023-11-03T16:58:44.673Z,95569.19
2023-11-03T17:01:47.991Z,95562.19
2023-11-03T17:04:53.672Z,95570.78
2023-11-03T17:07:57.023Z,95574.78
2023-11-03T17:11:01.175Z,95579.59
2023-11-03T17:14:05.484Z,95580.38
2023-11-03T17:17:09.820Z,95580.38
2023-11-03T17:20:15.812Z,95578.78
2023-11-03T17:23:20.202Z,95576.56
2023-11-03T17:26:24.634Z,95564.47
2023-11-03T17:29:30.240Z,95556.38
2023-11-03T17:32:33.998Z,95568.78
2023-11-03T17:35:39.293Z,95564.97
2023-11-03T17:38:42.856Z,95583.56
2023-11-03T17:41:48.071Z,95566.53
2023-11-03T17:44:51.863Z,95570.69
2023-11-03T17:47:55.859Z,95569.09
2023-11-03T17:51:00.925Z,95581.00
2023-11-03T17:54:05.975Z,95568.59
2023-11-03T17:57:10.473Z,95570.00
2023-11-03T18:00:16.528Z,95569.19
2023-11-03T18:03:20.121Z,95559.38
2023-11-03T18:06:25.372Z,95566.09
2023-11-03T18:09:28.585Z,95556.06
2023-11-03T18:12:32.804Z,95567.19
2023-11-03T18:15:36.252Z,95589.59
2023-11-03T18:18:39.994Z,95599.91
2023-11-03T18:21:44.656Z,95662.31
2023-11-03T18:24:49.523Z,95672.56
2023-11-03T18:27:53.067Z,95664.19
2023-11-03T18:30:56.987Z,95658.53
2023-11-03T18:34:00.854Z,95646.75
2023-11-03T18:37:06.758Z,95659.94
2023-11-03T18:40:14.304Z,95651.28
2023-11-03T18:43:19.749Z,95645.56
2023-11-03T18:46:23.213Z,95615.22
2023-11-03T18:52:35.773Z,95636.16
2023-11-03T19:00:19.905Z,95669.69
2023-11-03T19:04:04.432Z,95695.13
2023-11-03T19:07:09.270Z,95689.59
2023-11-03T19:08:58.091Z,95707.75
2023-11-03T19:12:01.333Z,95714.31
2023-11-03T19:15:08.948Z,95739.22
2023-11-03T19:18:12.478Z,95710.44
2023-11-03T19:21:16.624Z,95715.19
2023-11-03T19:24:21.950Z,95709.97
2023-11-03T19:27:26.011Z,95743.66
2023-11-03T19:30:29.777Z,95711.13
2023-11-03T19:33:33.940Z,95717.97
2023-11-03T19:36:37.410Z,95719.28
2023-11-03T19:39:43.705Z,95723.56
2023-11-03T19:42:47.982Z,95727.84
2023-11-03T19:45:51.917Z,95744.81
2023-11-03T19:48:55.292Z,95757.97
2023-11-03T19:51:59.338Z,95757.47
2023-11-03T19:55:04.000Z,95743.19
2023-11-03T19:58:07.948Z,95757.47
2023-11-03T20:01:11.386Z,95755.13
2023-11-03T20:04:15.344Z,95758.91
2023-11-03T20:07:18.805Z,95772.16
2023-11-03T20:10:25.846Z,95770.81
2023-11-03T20:13:29.647Z,95788.00
2023-11-03T20:16:35.902Z,95783.19
2023-11-03T20:19:41.597Z,95765.44
2023-11-03T20:22:45.696Z,95784.59
2023-11-03T20:25:50.319Z,95792.16
2023-11-03T20:28:54.484Z,95804.06
2023-11-03T20:31:57.687Z,95813.28
2023-11-03T20:35:03.028Z,95829.84
2023-11-03T20:38:06.956Z,95837.19
2023-11-03T20:41:12.256Z,95850.75
2023-11-03T20:44:17.605Z,95848.44
2023-11-03T20:47:22.059Z,95850.97
2023-11-03T20:50:27.076Z,95863.63
2023-11-03T20:53:33.237Z,95886.84
2023-11-03T20:56:37.890Z,95889.13
2023-11-03T20:59:41.858Z,95904.50
2023-11-03T21:02:49.188Z,95917.22
2023-11-03T21:05:59.092Z,95924.50
2023-11-03T21:09:02.346Z,95936.88
2023-11-03T21:12:09.153Z,95951.19
2023-11-03T21:15:14.885Z,95950.97
2023-11-03T21:18:21.910Z,95988.31
2023-11-03T21:21:25.318Z,95993.94
2023-11-03T21:24:29.378Z,96012.75
2023-11-03T21:27:34.115Z,96019.47
2023-11-03T21:30:38.377Z,96035.50
2023-11-03T21:33:42.066Z,96029.91
2023-11-03T21:36:46.015Z,96043.81
2023-11-03T21:39:49.517Z,96045.41
2023-11-03T21:42:54.816Z,96086.13
2023-11-03T21:45:59.118Z,96091.72
2023-11-03T21:49:03.109Z,96089.84
2023-11-03T21:52:07.849Z,96099.72
2023-11-03T21:55:12.035Z,96097.81
2023-11-03T21:58:16.841Z,96098.88
2023-11-03T22:01:21.037Z,96125.91
2023-11-03T22:04:24.548Z,96119.50
2023-11-03T22:07:29.144Z,96134.72
2023-11-03T22:10:32.385Z,96141.66
2023-11-03T22:13:37.700Z,96159.63
2023-11-03T22:16:41.073Z,96172.16
2023-11-03T22:19:45.280Z,96202.09
2023-11-03T22:22:48.584Z,96201.00
2023-11-03T22:25:54.110Z,96200.94
2023-11-03T22:29:02.301Z,96202.81
2023-11-03T22:32:07.531Z,96229.56
2023-11-03T22:35:10.853Z,96227.16
2023-11-03T22:38:14.903Z,96236.78
2023-11-03T22:41:18.362Z,96246.69
2023-11-03T22:44:24.762Z,96241.81
2023-11-03T22:47:28.041Z,96257.88
2023-11-03T22:50:31.927Z,96257.56
2023-11-03T22:53:35.205Z,96282.97
2023-11-03T22:56:38.894Z,96276.28
2023-11-03T22:59:43.473Z,96307.03
2023-11-03T23:02:47.309Z,96298.13
2023-11-03T23:05:50.867Z,96286.59
2023-11-03T23:08:54.667Z,96293.00
2023-11-03T23:11:57.873Z,96294.06
2023-11-03T23:15:03.375Z,96288.88
2023-11-03T23:18:06.890Z,96292.06
2023-11-03T23:21:12.976Z,96294.19
2023-11-03T23:24:18.133Z,96305.94
2023-11-03T23:27:22.796Z,96300.09
2023-11-03T23:30:27.679Z,96302.19
2023-11-03T23:33:32.665Z,96311.28
2023-11-03T23:36:36.154Z,96319.31
2023-11-03T23:39:40.526Z,96326.28
2023-11-03T23:42:43.950Z,96321.47
2023-11-03T23:45:49.712Z,96324.94
2023-11-03T23:48:53.381Z,96332.72
2023-11-03T23:51:57.074Z,96329.56
2023-11-03T23:55:01.765Z,96333.63
2023-11-03T23:58:06.964Z,96326.97
